createdAt,value
2018-12-18T00:01:48.921Z,5.71
2018-12-18T00:04:20.651Z,5.72
2018-12-18T00:06:52.883Z,5.78
2018-12-18T00:09:25.179Z,5.73
2018-12-18T00:11:59.394Z,5.70
2018-12-18T00:14:31.740Z,5.66
2018-12-18T00:17:04.055Z,5.71
2018-12-18T00:19:35.999Z,5.72
2018-12-18T00:22:10.827Z,5.89
2018-12-18T00:24:42.599Z,5.83
2018-12-18T00:27:14.870Z,5.83
2018-12-18T00:29:47.092Z,5.89
2018-12-18T00:32:19.376Z,5.73
2018-12-18T00:34:51.474Z,5.87
2018-12-18T00:37:23.855Z,5.85
2018-12-18T00:39:56.148Z,5.97
2018-12-18T00:42:28.469Z,5.90
2018-12-18T00:45:00.925Z,5.99
2018-12-18T00:47:32.859Z,6.00
2018-12-18T00:50:05.294Z,5.89
2018-12-18T00:52:37.529Z,5.94
2018-12-18T00:55:09.798Z,6.06
2018-12-18T00:57:43.887Z,6.05
2018-12-18T01:00:16.112Z,6.06
2018-12-18T01:02:47.868Z,6.10
2018-12-18T01:05:20.313Z,6.01
2018-12-18T01:07:53.507Z,6.01
2018-12-18T01:13:17.275Z,6.01
2018-12-18T01:15:48.885Z,6.02
2018-12-18T01:18:21.806Z,5.96
2018-12-18T01:20:53.783Z,6.04
2018-12-18T01:23:25.815Z,6.13
2018-12-18T01:26:00.243Z,6.08
2018-12-18T01:28:34.123Z,6.07
2018-12-18T01:31:05.922Z,6.08
2018-12-18T01:33:38.426Z,6.05
2018-12-18T01:38:42.095Z,6.00
2018-12-18T01:41:14.611Z,6.00
2018-12-18T01:43:46.597Z,6.00
2018-12-18T01:46:18.605Z,6.02
2018-12-18T01:48:50.704Z,6.04
2018-12-18T01:51:22.823Z,6.03
2018-12-18T01:53:55.008Z,6.06
2018-12-18T01:56:27.512Z,6.04
2018-12-18T01:58:59.860Z,6.00
2018-12-18T02:01:29.932Z,6.05
2018-12-18T02:04:05.926Z,6.07
2018-12-18T02:06:35.918Z,6.04
2018-12-18T02:09:08.731Z,6.03
2018-12-18T02:11:40.591Z,6.09
2018-12-18T02:14:12.659Z,6.05
2018-12-18T02:16:44.781Z,5.98
2018-12-18T02:19:17.292Z,6.00
2018-12-18T02:21:49.528Z,5.93
2018-12-18T02:24:21.937Z,5.98
2018-12-18T02:26:53.954Z,5.97
2018-12-18T02:29:26.224Z,6.02
2018-12-18T02:31:56.494Z,6.02
2018-12-18T02:34:28.971Z,6.06
2018-12-18T02:37:00.896Z,6.02
2018-12-18T02:39:35.536Z,6.04
2018-12-18T02:42:07.965Z,5.93
2018-12-18T02:44:40.385Z,5.91
2018-12-18T02:47:12.764Z,5.98
2018-12-18T02:49:45.201Z,5.98
2018-12-18T02:52:15.288Z,6.02
2018-12-18T02:54:47.278Z,5.99
2018-12-18T02:57:17.776Z,5.99
2018-12-18T02:59:49.649Z,6.01
2018-12-18T03:02:20.163Z,5.95
2018-12-18T03:04:52.535Z,6.03
2018-12-18T03:07:24.568Z,6.11
2018-12-18T03:09:56.716Z,6.14
2018-12-18T03:12:26.944Z,6.17
2018-12-18T03:14:59.003Z,6.18
2018-12-18T03:17:31.071Z,6.17
2018-12-18T03:20:03.198Z,6.12
2018-12-18T03:22:35.578Z,6.09
2018-12-18T03:25:08.007Z,6.06
2018-12-18T03:27:38.129Z,6.03
2018-12-18T03:30:10.467Z,6.04
2018-12-18T03:32:48.666Z,6.00
2018-12-18T03:35:21.073Z,5.99
2018-12-18T03:37:53.340Z,5.97
2018-12-18T03:40:25.691Z,5.98
2018-12-18T03:42:58.127Z,6.02
2018-12-18T03:45:30.599Z,6.01
2018-12-18T03:48:02.499Z,5.99
2018-12-18T03:50:34.647Z,5.97
2018-12-18T03:53:06.821Z,5.98
2018-12-18T03:55:39.010Z,5.94
2018-12-18T03:58:11.317Z,5.92
2018-12-18T04:00:41.651Z,5.96
2018-12-18T04:03:13.830Z,5.92
2018-12-18T04:05:45.868Z,5.86
2018-12-18T04:08:18.171Z,5.91
2018-12-18T04:10:50.245Z,5.92
2018-12-18T04:13:22.094Z,5.89
2018-12-18T04:15:54.025Z,5.88
2018-12-18T04:18:26.035Z,5.85
2018-12-18T04:20:58.276Z,5.78
2018-12-18T04:23:30.707Z,5.80
2018-12-18T04:26:02.727Z,5.79
2018-12-18T04:28:35.024Z,5.75
2018-12-18T04:31:09.483Z,5.80
2018-12-18T04:33:41.376Z,5.83
2018-12-18T04:36:11.439Z,5.75
2018-12-18T04:38:43.605Z,5.76
2018-12-18T04:41:14.133Z,5.65
2018-12-18T04:43:44.420Z,5.62
2018-12-18T04:46:16.725Z,5.52
2018-12-18T04:48:48.549Z,5.44
2018-12-18T04:51:20.743Z,5.32
2018-12-18T04:53:53.089Z,5.24
2018-12-18T04:56:24.816Z,5.16
2018-12-18T04:58:55.111Z,5.09
2018-12-18T05:01:32.475Z,5.00
2018-12-18T05:04:04.489Z,4.95
2018-12-18T05:06:36.637Z,5.01
2018-12-18T05:09:09.153Z,4.84
2018-12-18T05:11:41.910Z,4.82
2018-12-18T05:14:13.639Z,4.83
2018-12-18T05:16:46.137Z,4.67
2018-12-18T05:19:18.431Z,4.69
2018-12-18T05:21:50.793Z,4.56
2018-12-18T05:24:22.942Z,4.52
2018-12-18T05:26:55.056Z,4.53
2018-12-18T05:29:27.194Z,4.62
2018-12-18T05:31:59.332Z,4.61
2018-12-18T05:34:31.655Z,4.55
2018-12-18T05:37:04.010Z,4.57
2018-12-18T05:39:36.055Z,4.54
2018-12-18T05:42:06.286Z,4.51
2018-12-18T05:44:38.631Z,4.51
2018-12-18T05:47:11.531Z,4.55
2018-12-18T05:49:44.303Z,4.52
2018-12-18T05:52:20.219Z,4.51
2018-12-18T05:54:50.415Z,4.49
2018-12-18T05:57:22.785Z,4.47
2018-12-18T05:59:55.516Z,4.48
2018-12-18T06:02:28.917Z,4.52
2018-12-18T06:05:03.273Z,4.51
2018-12-18T06:07:35.153Z,4.55
2018-12-18T06:10:07.076Z,4.64
2018-12-18T06:12:39.619Z,4.60
2018-12-18T06:15:12.007Z,4.65
2018-12-18T06:20:38.121Z,4.72
2018-12-18T06:23:10.290Z,4.68
2018-12-18T06:25:42.599Z,4.67
2018-12-18T06:28:15.041Z,4.55
2018-12-18T06:30:47.416Z,4.52
2018-12-18T06:33:20.934Z,4.42
2018-12-18T06:35:52.823Z,4.26
2018-12-18T06:38:25.861Z,4.25
2018-12-18T06:40:58.382Z,4.16
2018-12-18T06:43:30.904Z,4.23
2018-12-18T06:46:01.132Z,4.16
2018-12-18T06:48:35.779Z,4.17
2018-12-18T06:51:07.681Z,4.21
2018-12-18T06:53:38.110Z,4.13
2018-12-18T06:56:10.459Z,4.09
2018-12-18T06:58:42.819Z,4.15
2018-12-18T07:01:14.771Z,4.08
2018-12-18T07:03:47.139Z,4.17
2018-12-18T07:06:19.279Z,4.12
2018-12-18T07:08:51.284Z,4.14
2018-12-18T07:11:23.310Z,4.16
2018-12-18T07:13:55.872Z,4.17
2018-12-18T07:16:27.925Z,4.23
2018-12-18T07:19:00.555Z,4.23
2018-12-18T07:21:33.045Z,4.27
2018-12-18T07:24:04.654Z,4.38
2018-12-18T07:26:36.697Z,4.40
2018-12-18T07:29:09.244Z,4.33
2018-12-18T07:31:41.414Z,4.34
2018-12-18T07:34:13.619Z,4.41
2018-12-18T07:36:45.899Z,4.37
2018-12-18T07:39:16.062Z,4.40
2018-12-18T07:41:48.282Z,4.45
2018-12-18T07:44:21.029Z,4.53
2018-12-18T07:46:53.468Z,4.59
2018-12-18T07:49:25.972Z,4.67
2018-12-18T07:51:59.719Z,4.67
2018-12-18T07:54:39.458Z,4.69
2018-12-18T07:57:12.163Z,4.84
2018-12-18T07:59:44.318Z,4.81
2018-12-18T08:02:15.424Z,4.94
2018-12-18T08:04:47.812Z,4.85
2018-12-18T08:07:20.495Z,4.98
2018-12-18T08:09:52.741Z,4.86
2018-12-18T08:12:26.719Z,4.96
2018-12-18T08:15:00.474Z,5.04
2018-12-18T08:17:34.719Z,5.05
2018-12-18T08:20:07.472Z,5.18
2018-12-18T08:22:39.365Z,5.30
2018-12-18T08:25:11.529Z,5.31
2018-12-18T08:27:44.275Z,5.33
2018-12-18T08:30:16.225Z,5.47
2018-12-18T08:32:48.519Z,5.73
2018-12-18T08:35:20.593Z,5.62
2018-12-18T08:37:53.128Z,5.56
2018-12-18T08:40:25.484Z,5.53
2018-12-18T08:42:57.900Z,5.68
2018-12-18T08:45:29.867Z,5.78
2018-12-18T08:48:06.159Z,5.74
2018-12-18T08:50:40.757Z,5.90
2018-12-18T08:53:12.589Z,6.03
2018-12-18T08:55:45.134Z,5.99
2018-12-18T08:58:18.190Z,6.19
2018-12-18T09:00:50.116Z,6.16
2018-12-18T09:03:21.924Z,6.22
2018-12-18T09:05:54.265Z,6.33
2018-12-18T09:08:26.559Z,6.44
2018-12-18T09:10:58.420Z,6.46
2018-12-18T09:13:31.719Z,6.53
2018-12-18T09:16:10.559Z,6.65
2018-12-18T09:18:42.878Z,6.68
2018-12-18T09:21:17.558Z,6.59
2018-12-18T09:23:53.173Z,6.68
2018-12-18T09:26:27.147Z,6.61
2018-12-18T09:29:00.149Z,6.66
2018-12-18T09:31:32.579Z,6.81
2018-12-18T09:34:03.762Z,6.92
2018-12-18T09:36:38.828Z,6.84
2018-12-18T09:39:16.633Z,6.93
2018-12-18T09:41:53.411Z,6.88
2018-12-18T09:44:25.253Z,6.85
2018-12-18T09:46:55.447Z,6.88
2018-12-18T09:49:30.087Z,6.94
2018-12-18T09:52:02.051Z,7.05
2018-12-18T09:54:34.427Z,7.17
2018-12-18T09:57:10.713Z,7.31
2018-12-18T09:59:47.207Z,7.46
2018-12-18T10:02:25.919Z,7.54
2018-12-18T10:04:58.326Z,7.67
2018-12-18T10:07:30.643Z,7.78
2018-12-18T10:10:03.203Z,7.89
2018-12-18T10:12:40.113Z,8.02
2018-12-18T10:15:11.927Z,8.22
2018-12-18T10:17:43.941Z,8.34
2018-12-18T10:20:16.595Z,8.43
2018-12-18T10:22:48.923Z,8.45
2018-12-18T10:25:19.200Z,8.57
2018-12-18T10:27:53.256Z,8.40
2018-12-18T10:30:26.024Z,8.45
2018-12-18T10:32:58.622Z,8.56
2018-12-18T10:35:36.520Z,8.60
2018-12-18T10:38:05.776Z,8.77
2018-12-18T10:40:38.994Z,8.91
2018-12-18T10:43:11.408Z,8.87
2018-12-18T10:45:41.570Z,8.76
2018-12-18T10:48:13.908Z,8.75
2018-12-18T10:50:45.978Z,8.72
2018-12-18T10:53:18.511Z,8.94
2018-12-18T10:55:50.662Z,8.99
2018-12-18T10:58:24.262Z,9.01
2018-12-18T11:01:02.075Z,8.84
2018-12-18T11:03:34.186Z,8.99
2018-12-18T11:06:09.933Z,9.08
2018-12-18T11:08:40.687Z,9.26
2018-12-18T11:11:13.400Z,9.30
2018-12-18T11:13:45.672Z,9.22
2018-12-18T11:16:17.743Z,9.32
2018-12-18T11:18:51.790Z,9.17
2018-12-18T11:21:24.183Z,9.21
2018-12-18T11:23:56.615Z,9.06
2018-12-18T11:26:30.809Z,9.35
2018-12-18T11:29:02.866Z,9.47
2018-12-18T11:31:35.220Z,9.70
2018-12-18T11:34:07.750Z,10.28
2018-12-18T11:36:42.350Z,10.58
2018-12-18T11:39:14.118Z,10.98
2018-12-18T11:41:51.031Z,11.24
2018-12-18T11:44:23.452Z,11.18
2018-12-18T11:46:55.435Z,11.01
2018-12-18T11:49:27.254Z,11.02
2018-12-18T11:51:59.516Z,11.11
2018-12-18T11:54:31.385Z,11.13
2018-12-18T11:57:03.778Z,11.18
2018-12-18T11:59:36.328Z,11.27
2018-12-18T12:02:11.052Z,11.42
2018-12-18T12:04:43.247Z,11.69
2018-12-18T12:07:31.059Z,11.89
2018-12-18T12:10:14.281Z,12.24
2018-12-18T12:12:46.947Z,12.12
2018-12-18T12:15:19.112Z,12.36
2018-12-18T12:17:52.412Z,12.45
2018-12-18T12:20:24.656Z,12.64
2018-12-18T12:22:55.084Z,12.75
2018-12-18T12:25:29.640Z,12.72
2018-12-18T12:28:06.499Z,12.67
2018-12-18T12:30:39.275Z,12.41
2018-12-18T12:33:13.655Z,12.34
2018-12-18T12:35:45.333Z,12.29
2018-12-18T12:38:17.640Z,12.32
2018-12-18T12:40:48.034Z,12.25
2018-12-18T12:43:24.170Z,12.21
2018-12-18T12:45:56.825Z,11.74
2018-12-18T12:48:33.815Z,11.69
2018-12-18T12:51:06.289Z,11.82
2018-12-18T12:53:38.280Z,11.90
2018-12-18T12:56:10.458Z,11.75
2018-12-18T12:58:42.902Z,11.87
2018-12-18T13:01:15.152Z,11.64
2018-12-18T13:03:47.428Z,11.67
2018-12-18T13:06:20.027Z,11.39
2018-12-18T13:08:52.258Z,11.51
2018-12-18T13:11:25.272Z,11.33
2018-12-18T13:13:57.796Z,11.38
2018-12-18T13:16:31.055Z,11.48
2018-12-18T13:19:03.821Z,11.37
2018-12-18T13:21:35.981Z,11.40
2018-12-18T13:24:09.212Z,11.45
2018-12-18T13:26:41.827Z,11.62
2018-12-18T13:29:13.332Z,11.63
2018-12-18T13:31:44.358Z,11.31
2018-12-18T13:34:17.439Z,11.25
2018-12-18T13:36:48.133Z,11.23
2018-12-18T13:39:20.076Z,11.37
2018-12-18T13:41:52.721Z,11.29
2018-12-18T13:44:28.035Z,11.35
2018-12-18T13:47:01.964Z,11.34
2018-12-18T13:49:35.868Z,11.31
2018-12-18T13:52:08.010Z,10.99
2018-12-18T13:54:42.697Z,10.92
2018-12-18T13:57:15.850Z,10.70
2018-12-18T14:00:14.160Z,10.59
2018-12-18T14:02:46.436Z,10.71
2018-12-18T14:05:18.618Z,10.60
2018-12-18T14:07:51.184Z,10.24
2018-12-18T14:10:23.277Z,10.02
2018-12-18T14:12:57.181Z,9.81
2018-12-18T14:15:31.503Z,9.49
2018-12-18T14:18:03.701Z,9.32
2018-12-18T14:20:38.256Z,9.24
2018-12-18T14:23:09.824Z,9.01
2018-12-18T14:25:42.292Z,8.81
2018-12-18T14:28:14.354Z,8.65
2018-12-18T14:30:46.480Z,8.56
2018-12-18T14:33:18.056Z,8.29
2018-12-18T14:35:50.418Z,8.14
2018-12-18T14:38:20.568Z,7.97
2018-12-18T14:40:52.813Z,7.72
2018-12-18T14:43:25.549Z,7.45
2018-12-18T14:45:57.308Z,7.29
2018-12-18T14:48:30.348Z,7.13
2018-12-18T14:51:02.862Z,6.87
2018-12-18T14:53:32.967Z,6.79
2018-12-18T14:56:05.081Z,6.65
2018-12-18T14:58:37.571Z,6.50
2018-12-18T15:01:09.415Z,6.29
2018-12-18T15:03:41.204Z,6.21
2018-12-18T15:06:13.075Z,6.09
2018-12-18T15:08:45.430Z,6.01
2018-12-18T15:11:19.967Z,5.86
2018-12-18T15:13:51.743Z,5.77
2018-12-18T15:16:23.911Z,5.67
2018-12-18T15:18:56.463Z,5.55
2018-12-18T15:21:28.536Z,5.46
2018-12-18T15:24:00.755Z,5.41
2018-12-18T15:26:33.001Z,5.34
2018-12-18T15:29:05.494Z,5.20
2018-12-18T15:31:37.325Z,5.09
2018-12-18T15:34:09.382Z,4.98
2018-12-18T15:36:42.003Z,4.89
2018-12-18T15:39:13.868Z,4.80
2018-12-18T15:41:45.840Z,4.73
2018-12-18T15:44:18.224Z,4.69
2018-12-18T15:46:52.588Z,4.59
2018-12-18T15:49:24.603Z,4.54
2018-12-18T15:51:56.704Z,4.46
2018-12-18T15:54:29.024Z,4.38
2018-12-18T15:57:01.131Z,4.35
2018-12-18T15:59:33.528Z,4.38
2018-12-18T16:07:15.975Z,4.73
2018-12-18T16:09:44.184Z,5.04
2018-12-18T16:12:16.482Z,5.15
2018-12-18T16:14:48.611Z,5.17
2018-12-18T16:17:21.704Z,5.23
2018-12-18T16:19:54.529Z,5.18
2018-12-18T16:22:26.594Z,5.15
2018-12-18T16:24:58.668Z,5.05
2018-12-18T16:27:30.815Z,5.11
2018-12-18T16:30:02.913Z,5.06
2018-12-18T16:35:25.788Z,4.94
2018-12-18T16:37:58.164Z,4.92
2018-12-18T16:40:29.923Z,4.88
2018-12-18T16:43:02.084Z,4.83
2018-12-18T16:45:34.130Z,4.69
2018-12-18T16:48:06.482Z,4.57
2018-12-18T16:50:38.383Z,4.58
2018-12-18T16:53:10.475Z,4.50
2018-12-18T16:55:45.027Z,4.43
2018-12-18T16:58:16.987Z,4.35
2018-12-18T17:00:49.132Z,4.34
2018-12-18T17:03:23.702Z,4.27
2018-12-18T17:05:55.426Z,4.21
2018-12-18T17:08:27.883Z,4.21
2018-12-18T17:11:00.088Z,4.14
2018-12-18T17:13:32.472Z,4.15
2018-12-18T17:16:06.111Z,4.10
2018-12-18T17:18:37.784Z,4.05
2018-12-18T17:21:09.881Z,3.90
2018-12-18T17:23:42.283Z,3.92
2018-12-18T17:26:15.722Z,3.74
2018-12-18T17:28:47.669Z,3.64
2018-12-18T17:31:17.745Z,3.57
2018-12-18T17:33:49.936Z,3.50
2018-12-18T17:36:22.129Z,3.43
2018-12-18T17:38:54.292Z,3.36
2018-12-18T17:41:26.827Z,3.34
2018-12-18T17:43:56.984Z,3.36
2018-12-18T17:46:29.052Z,3.30
2018-12-18T17:48:59.186Z,3.22
2018-12-18T17:51:33.623Z,3.27
2018-12-18T17:54:05.568Z,3.20
2018-12-18T17:56:35.831Z,3.21
2018-12-18T17:59:06.067Z,3.25
2018-12-18T18:01:38.340Z,3.21
2018-12-18T18:04:10.448Z,3.26
2018-12-18T18:06:40.900Z,3.30
2018-12-18T18:09:11.369Z,3.30
2018-12-18T18:11:43.364Z,3.20
2018-12-18T18:14:15.511Z,3.18
2018-12-18T18:16:49.926Z,3.11
2018-12-18T18:19:21.533Z,3.11
2018-12-18T18:21:53.600Z,3.10
2018-12-18T18:24:23.903Z,3.08
2018-12-18T18:26:55.411Z,3.01
2018-12-18T18:29:27.816Z,2.98
2018-12-18T18:31:59.884Z,2.95
2018-12-18T18:34:34.561Z,2.94
2018-12-18T18:37:06.967Z,2.99
2018-12-18T18:39:39.073Z,2.95
2018-12-18T18:42:11.522Z,2.92
2018-12-18T18:44:44.176Z,2.95
2018-12-18T18:47:15.927Z,2.91
2018-12-18T18:49:48.140Z,2.85
2018-12-18T18:52:18.532Z,2.78
2018-12-18T18:54:50.584Z,2.86
2018-12-18T18:57:22.764Z,2.88
2018-12-18T18:59:56.166Z,2.91
2018-12-18T19:02:28.228Z,2.89
2018-12-18T19:05:00.726Z,2.88
2018-12-18T19:07:35.229Z,2.80
2018-12-18T19:10:08.504Z,2.79
2018-12-18T19:12:40.539Z,2.69
2018-12-18T19:15:12.818Z,2.61
2018-12-18T19:17:45.221Z,2.60
2018-12-18T19:20:17.607Z,2.56
2018-12-18T19:22:51.966Z,2.51
2018-12-18T19:25:24.100Z,2.52
2018-12-18T19:27:56.491Z,2.50
2018-12-18T19:30:30.744Z,2.55
2018-12-18T19:33:02.440Z,2.52
2018-12-18T19:35:34.843Z,2.50
2018-12-18T19:38:07.631Z,2.60
2018-12-18T19:40:39.562Z,2.60
2018-12-18T19:43:11.969Z,2.48
2018-12-18T19:45:43.802Z,2.49
2018-12-18T19:48:14.255Z,2.48
2018-12-18T19:50:46.732Z,2.49
2018-12-18T19:53:18.288Z,2.39
2018-12-18T19:55:52.455Z,2.39
2018-12-18T19:58:24.342Z,2.35
2018-12-18T20:00:56.600Z,2.22
2018-12-18T20:03:29.011Z,2.18
2018-12-18T20:06:01.259Z,2.20
2018-12-18T20:08:35.661Z,2.05
2018-12-18T20:11:07.511Z,2.06
2018-12-18T20:13:42.072Z,2.00
2018-12-18T20:16:14.541Z,2.02
2018-12-18T20:18:48.887Z,2.01
2018-12-18T20:21:20.556Z,1.98
2018-12-18T20:23:52.745Z,1.95
2018-12-18T20:26:24.636Z,1.88
2018-12-18T20:28:57.012Z,1.77
2018-12-18T20:31:27.198Z,1.69
2018-12-18T20:33:57.413Z,1.65
2018-12-18T20:36:29.785Z,1.62
2018-12-18T20:39:01.970Z,1.62
2018-12-18T20:41:34.156Z,1.57
2018-12-18T20:44:07.423Z,1.55
2018-12-18T20:46:39.089Z,1.57
2018-12-18T20:49:11.070Z,1.51
2018-12-18T20:51:45.867Z,1.56
2018-12-18T20:54:19.715Z,1.45
2018-12-18T20:56:52.360Z,1.41
2018-12-18T20:59:24.546Z,1.31
2018-12-18T21:01:56.332Z,1.26
2018-12-18T21:04:37.960Z,1.25
2018-12-18T21:07:10.930Z,1.14
2018-12-18T21:09:42.900Z,1.11
2018-12-18T21:12:15.336Z,1.03
2018-12-18T21:14:47.425Z,0.99
2018-12-18T21:17:19.317Z,0.94
2018-12-18T21:19:52.044Z,0.86
2018-12-18T21:22:23.905Z,0.81
2018-12-18T21:24:55.821Z,0.78
2018-12-18T21:27:29.634Z,0.70
2018-12-18T21:29:59.903Z,0.59
2018-12-18T21:32:31.980Z,0.57
2018-12-18T21:35:04.732Z,0.58
2018-12-18T21:37:37.708Z,0.58
2018-12-18T21:40:24.388Z,0.57
2018-12-18T21:42:56.269Z,0.47
2018-12-18T21:45:30.612Z,0.40
2018-12-18T21:48:04.973Z,0.40
2018-12-18T21:50:37.098Z,0.38
2018-12-18T21:53:11.427Z,0.42
2018-12-18T21:55:43.531Z,0.41
2018-12-18T21:58:15.659Z,0.44
2018-12-18T22:00:49.991Z,0.41
2018-12-18T22:03:21.911Z,0.38
2018-12-18T22:05:52.577Z,0.34
2018-12-18T22:08:24.856Z,0.41
2018-12-18T22:10:57.091Z,0.35
2018-12-18T22:13:29.325Z,0.40
2018-12-18T22:16:01.589Z,0.47
2018-12-18T22:18:37.539Z,0.46
2018-12-18T22:21:11.714Z,0.38
2018-12-18T22:23:43.524Z,0.38
2018-12-18T22:26:15.624Z,0.47
2018-12-18T22:28:45.859Z,0.40
2018-12-18T22:31:18.071Z,0.51
2018-12-18T22:33:48.328Z,0.49
2018-12-18T22:36:20.469Z,0.43
2018-12-18T22:38:50.819Z,0.45
2018-12-18T22:41:23.152Z,0.42
2018-12-18T22:43:55.062Z,0.46
2018-12-18T22:46:25.556Z,0.45
2018-12-18T22:48:58.109Z,0.49
2018-12-18T22:51:29.924Z,0.47
2018-12-18T22:54:02.197Z,0.36
2018-12-18T22:59:26.153Z,0.32
2018-12-18T23:01:57.227Z,0.28
2018-12-18T23:04:29.630Z,0.22
2018-12-18T23:07:01.780Z,0.27
2018-12-18T23:09:32.581Z,0.24
2018-12-18T23:12:04.393Z,0.18
2018-12-18T23:14:36.524Z,0.16
2018-12-18T23:22:09.642Z,0.08
2018-12-18T23:24:41.789Z,0.22
2018-12-18T23:27:12.148Z,0.16
2018-12-18T23:29:44.703Z,0.15
2018-12-18T23:32:14.732Z,0.09
2018-12-18T23:34:47.116Z,0.05
2018-12-18T23:37:19.437Z,0.12
2018-12-18T23:39:51.809Z,0.05
2018-12-18T23:42:23.559Z,0.05
2018-12-18T23:44:54.575Z,-0.01
2018-12-18T23:47:26.199Z,0.00
2018-12-18T23:49:56.211Z,-0.03
2018-12-18T23:52:26.620Z,0.00
2018-12-18T23:54:58.700Z,0.06
2018-12-18T23:57:28.975Z,0.13
